createdAt,value
2017-01-13T00:00:14.938Z,3.86
2017-01-13T00:00:41.021Z,3.76
2017-01-13T00:01:07.123Z,3.83
2017-01-13T00:01:33.227Z,3.87
2017-01-13T00:01:59.325Z,4.01
2017-01-13T00:02:25.419Z,3.98
2017-01-13T00:02:51.526Z,3.96
2017-01-13T00:03:17.619Z,3.99
2017-01-13T00:03:43.710Z,4.04
2017-01-13T00:04:09.814Z,4.06
2017-01-13T00:04:35.913Z,4.16
2017-01-13T00:05:02.042Z,4.16
2017-01-13T00:05:28.137Z,4.2
2017-01-13T00:05:54.228Z,4.06
2017-01-13T00:06:20.342Z,4.02
2017-01-13T00:06:46.431Z,4.06
2017-01-13T00:07:12.520Z,4.01
2017-01-13T00:07:38.626Z,4.05
2017-01-13T00:08:04.726Z,3.99
2017-01-13T00:08:30.813Z,3.96
2017-01-13T00:08:56.920Z,3.96
2017-01-13T00:09:23.023Z,3.99
2017-01-13T00:09:49.109Z,3.94
2017-01-13T00:10:15.223Z,3.94
2017-01-13T00:10:41.319Z,3.86
2017-01-13T00:11:07.407Z,3.88
2017-01-13T00:11:33.504Z,3.95
2017-01-13T00:11:59.616Z,3.92
2017-01-13T00:12:25.706Z,3.86
2017-01-13T00:12:51.797Z,3.99
2017-01-13T00:13:17.908Z,3.95
2017-01-13T00:13:44.003Z,4.01
2017-01-13T00:14:10.091Z,3.87
2017-01-13T00:14:36.207Z,3.81
2017-01-13T00:15:02.302Z,3.92
2017-01-13T00:15:28.401Z,3.94
2017-01-13T00:15:54.493Z,3.77
2017-01-13T00:16:20.594Z,3.88
2017-01-13T00:16:46.695Z,3.87
2017-01-13T00:17:12.797Z,3.84
2017-01-13T00:17:38.873Z,3.86
2017-01-13T00:18:04.984Z,3.91
2017-01-13T00:18:31.083Z,3.81
2017-01-13T00:18:57.173Z,3.83
2017-01-13T00:19:23.283Z,3.84
2017-01-13T00:19:49.390Z,3.86
2017-01-13T00:20:15.479Z,3.92
2017-01-13T00:20:41.581Z,3.91
2017-01-13T00:21:07.674Z,4.02
2017-01-13T00:21:33.779Z,4.02
2017-01-13T00:21:59.878Z,4.1
2017-01-13T00:22:25.960Z,4.02
2017-01-13T00:22:52.071Z,4.02
2017-01-13T00:23:18.171Z,4.1
2017-01-13T00:23:44.259Z,4.1
2017-01-13T00:24:10.361Z,4.08
2017-01-13T00:24:36.468Z,4.2
2017-01-13T00:25:02.552Z,4.16
2017-01-13T00:25:28.651Z,4.23
2017-01-13T00:25:54.762Z,4.17
2017-01-13T00:26:20.848Z,4.16
2017-01-13T00:26:46.950Z,4.08
2017-01-13T00:27:13.068Z,4.04
2017-01-13T00:27:39.171Z,4.06
2017-01-13T00:28:05.331Z,4.06
2017-01-13T00:28:31.411Z,3.98
2017-01-13T00:28:57.511Z,3.92
2017-01-13T00:29:23.620Z,3.99
2017-01-13T00:29:49.706Z,3.98
2017-01-13T00:30:15.801Z,3.95
2017-01-13T00:30:41.909Z,3.95
2017-01-13T00:31:08.001Z,3.98
2017-01-13T00:31:34.095Z,3.99
2017-01-13T00:32:00.192Z,3.95
2017-01-13T00:32:26.293Z,4.01
2017-01-13T00:32:52.404Z,3.99
2017-01-13T00:33:18.494Z,4.08
2017-01-13T00:33:44.586Z,4.08
2017-01-13T00:34:10.695Z,4.17
2017-01-13T00:34:36.786Z,4.19
2017-01-13T00:35:02.876Z,4.3
2017-01-13T00:35:28.986Z,4.3
2017-01-13T00:35:55.103Z,4.22
2017-01-13T00:36:21.197Z,4.37
2017-01-13T00:36:47.307Z,4.31
2017-01-13T00:37:13.413Z,4.38
2017-01-13T00:37:39.509Z,4.38
2017-01-13T00:38:05.599Z,4.41
2017-01-13T00:38:31.690Z,4.38
2017-01-13T00:38:57.797Z,4.45
2017-01-13T00:39:23.898Z,4.37
2017-01-13T00:39:49.985Z,4.48
2017-01-13T00:40:16.089Z,4.48
2017-01-13T00:40:42.187Z,4.42
2017-01-13T00:41:08.279Z,4.48
2017-01-13T00:41:34.383Z,4.45
2017-01-13T00:42:00.492Z,4.6
2017-01-13T00:42:26.573Z,4.6
2017-01-13T00:42:52.672Z,4.58
2017-01-13T00:43:18.761Z,4.58
2017-01-13T00:43:44.866Z,4.58
2017-01-13T00:44:10.967Z,4.56
2017-01-13T00:44:37.052Z,4.59
2017-01-13T00:45:03.152Z,4.62
2017-01-13T00:45:29.260Z,4.56
2017-01-13T00:45:55.347Z,4.63
2017-01-13T00:46:21.446Z,4.7
2017-01-13T00:46:47.552Z,4.66
2017-01-13T00:47:13.644Z,4.77
2017-01-13T00:47:39.739Z,4.73
2017-01-13T00:48:05.851Z,4.68
2017-01-13T00:48:31.943Z,4.62
2017-01-13T00:48:58.044Z,4.53
2017-01-13T00:49:24.130Z,4.56
2017-01-13T00:49:50.235Z,4.63
2017-01-13T00:50:16.347Z,4.68
2017-01-13T00:50:42.436Z,4.73
2017-01-13T00:51:08.530Z,4.68
2017-01-13T00:51:34.632Z,4.74
2017-01-13T00:52:00.730Z,4.71
2017-01-13T00:52:26.820Z,4.58
2017-01-13T00:52:52.929Z,4.52
2017-01-13T00:53:19.026Z,4.6
2017-01-13T00:53:45.112Z,4.55
2017-01-13T00:54:11.225Z,4.53
2017-01-13T00:54:37.325Z,4.6
2017-01-13T00:55:03.418Z,4.6
2017-01-13T00:55:29.522Z,4.6
2017-01-13T00:55:55.635Z,4.63
2017-01-13T00:56:21.722Z,4.59
2017-01-13T00:56:47.823Z,4.55
2017-01-13T00:57:13.928Z,4.58
2017-01-13T00:57:40.045Z,4.7
2017-01-13T00:58:06.149Z,4.74
2017-01-13T00:58:32.278Z,4.78
2017-01-13T00:58:58.372Z,4.75
2017-01-13T00:59:24.676Z,4.78
2017-01-13T00:59:50.787Z,4.74
2017-01-13T01:00:16.887Z,4.87
2017-01-13T01:00:42.987Z,4.78
2017-01-13T01:01:09.077Z,4.89
2017-01-13T01:01:35.183Z,4.94
2017-01-13T01:02:01.282Z,4.99
2017-01-13T01:02:27.373Z,4.97
2017-01-13T01:02:53.465Z,5.08
2017-01-13T01:03:19.571Z,5.07
2017-01-13T01:03:45.668Z,5
2017-01-13T01:04:11.760Z,5
2017-01-13T01:04:37.869Z,5
2017-01-13T01:05:03.974Z,4.96
2017-01-13T01:05:30.067Z,4.93
2017-01-13T01:05:56.163Z,4.9
2017-01-13T01:06:22.254Z,4.9
2017-01-13T01:06:48.361Z,4.96
2017-01-13T01:07:14.456Z,4.96
2017-01-13T01:07:40.548Z,4.9
2017-01-13T01:08:06.655Z,4.89
2017-01-13T01:08:32.753Z,4.92
2017-01-13T01:08:58.849Z,4.93
2017-01-13T01:09:24.950Z,4.86
2017-01-13T01:09:51.045Z,4.86
2017-01-13T01:10:17.127Z,4.86
2017-01-13T01:10:43.231Z,4.8
2017-01-13T01:11:09.325Z,4.89
2017-01-13T01:11:35.429Z,4.8
2017-01-13T01:12:01.526Z,4.9
2017-01-13T01:12:27.621Z,4.96
2017-01-13T01:12:53.730Z,4.93
2017-01-13T01:13:19.829Z,4.96
2017-01-13T01:13:45.922Z,4.94
2017-01-13T01:14:12.021Z,4.89
2017-01-13T01:14:38.124Z,4.97
2017-01-13T01:15:04.220Z,5.11
2017-01-13T01:15:30.327Z,5.08
2017-01-13T01:15:56.428Z,5.05
2017-01-13T01:16:22.519Z,5.11
2017-01-13T01:16:48.633Z,5.15
2017-01-13T01:17:14.717Z,5.07
2017-01-13T01:17:40.812Z,5.04
2017-01-13T01:18:06.918Z,5.05
2017-01-13T01:18:33.009Z,5.12
2017-01-13T01:18:59.109Z,5.2
2017-01-13T01:19:25.210Z,5.08
2017-01-13T01:19:51.304Z,5.11
2017-01-13T01:20:17.394Z,5.15
2017-01-13T01:20:43.502Z,5.14
2017-01-13T01:21:09.594Z,5.15
2017-01-13T01:21:35.690Z,5.14
2017-01-13T01:22:01.792Z,5.14
2017-01-13T01:22:27.884Z,5.17
2017-01-13T01:22:53.993Z,5.14
2017-01-13T01:23:20.089Z,5.14
2017-01-13T01:23:46.181Z,5.21
2017-01-13T01:24:12.285Z,5.14
2017-01-13T01:24:38.379Z,5.23
2017-01-13T01:25:04.471Z,5.26
2017-01-13T01:25:30.572Z,5.26
2017-01-13T01:25:56.674Z,5.28
2017-01-13T01:26:22.769Z,5.15
2017-01-13T01:26:48.870Z,5.2
2017-01-13T01:27:14.972Z,5.11
2017-01-13T01:27:41.096Z,5.2
2017-01-13T01:28:07.189Z,5.17
2017-01-13T01:28:33.276Z,5.2
2017-01-13T01:28:59.384Z,5.21
2017-01-13T01:29:25.482Z,5.14
2017-01-13T01:29:51.575Z,5.18
2017-01-13T01:30:17.675Z,5.2
2017-01-13T01:30:43.782Z,5.12
2017-01-13T01:31:09.865Z,5.17
2017-01-13T01:31:35.963Z,5.14
2017-01-13T01:32:02.074Z,5.14
2017-01-13T01:32:28.163Z,5.18
2017-01-13T01:32:54.460Z,5.25
2017-01-13T01:33:20.549Z,5.26
2017-01-13T01:33:46.658Z,5.28
2017-01-13T01:34:12.765Z,5.28
2017-01-13T01:34:38.851Z,5.29
2017-01-13T01:35:04.950Z,5.28
2017-01-13T01:35:31.053Z,5.25
2017-01-13T01:35:57.146Z,5.25
2017-01-13T01:36:23.247Z,5.25
2017-01-13T01:36:49.353Z,5.26
2017-01-13T01:37:15.446Z,5.2
2017-01-13T01:37:41.542Z,5.1
2017-01-13T01:38:07.653Z,5.12
2017-01-13T01:38:33.750Z,5.15
2017-01-13T01:38:59.840Z,5.11
2017-01-13T01:39:25.949Z,5.17
2017-01-13T01:39:52.050Z,5.05
2017-01-13T01:40:18.135Z,5.11
2017-01-13T01:40:44.241Z,5.17
2017-01-13T01:41:10.341Z,5.17
2017-01-13T01:41:36.456Z,5.23
2017-01-13T01:42:02.558Z,5.33
2017-01-13T01:42:28.668Z,5.29
2017-01-13T01:42:54.757Z,5.32
2017-01-13T01:43:20.855Z,5.33
2017-01-13T01:43:46.963Z,5.36
2017-01-13T01:44:13.051Z,5.35
2017-01-13T01:44:39.163Z,5.32
2017-01-13T01:45:05.243Z,5.3
2017-01-13T01:45:31.342Z,5.32
2017-01-13T01:45:57.453Z,5.36
2017-01-13T01:46:23.545Z,5.38
2017-01-13T01:46:49.643Z,5.38
2017-01-13T01:47:15.748Z,5.33
2017-01-13T01:47:41.864Z,5.3
2017-01-13T01:48:07.950Z,5.35
2017-01-13T01:48:34.060Z,5.36
2017-01-13T01:49:00.161Z,5.28
2017-01-13T01:49:26.253Z,5.28
2017-01-13T01:49:52.366Z,5.32
2017-01-13T01:50:18.457Z,5.33
2017-01-13T01:50:44.569Z,5.36
2017-01-13T01:51:10.662Z,5.33
2017-01-13T01:51:36.752Z,5.33
2017-01-13T01:52:02.856Z,5.36
2017-01-13T01:52:28.950Z,5.3
2017-01-13T01:52:55.039Z,5.25
2017-01-13T01:53:21.147Z,5.29
2017-01-13T01:53:47.251Z,5.35
2017-01-13T01:54:13.340Z,5.32
2017-01-13T01:54:39.446Z,5.26
2017-01-13T01:55:05.548Z,5.36
2017-01-13T01:55:31.647Z,5.38
2017-01-13T01:55:57.742Z,5.43
2017-01-13T01:56:23.827Z,5.32
2017-01-13T01:56:49.936Z,5.32
2017-01-13T01:57:16.033Z,5.39
2017-01-13T01:57:42.127Z,5.39
2017-01-13T01:58:08.224Z,5.33
2017-01-13T01:58:34.338Z,5.53
2017-01-13T01:59:00.423Z,5.51
2017-01-13T01:59:26.521Z,5.44
2017-01-13T01:59:52.626Z,5.53
2017-01-13T02:00:18.718Z,5.53
2017-01-13T02:00:44.817Z,5.48
2017-01-13T02:01:10.915Z,5.5
2017-01-13T02:01:37.020Z,5.39
2017-01-13T02:02:03.132Z,5.51
2017-01-13T02:02:29.214Z,5.44
2017-01-13T02:02:55.321Z,5.5
2017-01-13T02:03:21.427Z,5.51
2017-01-13T02:03:47.512Z,5.5
2017-01-13T02:04:13.611Z,5.54
2017-01-13T02:04:39.717Z,5.46
2017-01-13T02:05:05.811Z,5.47
2017-01-13T02:05:31.899Z,5.5
2017-01-13T02:05:58.014Z,5.54
2017-01-13T02:06:24.113Z,5.53
2017-01-13T02:06:50.215Z,5.47
2017-01-13T02:07:16.310Z,5.54
2017-01-13T02:07:42.407Z,5.57
2017-01-13T02:08:08.510Z,5.5
2017-01-13T02:08:34.603Z,5.5
2017-01-13T02:09:00.687Z,5.57
2017-01-13T02:09:26.801Z,5.57
2017-01-13T02:09:52.921Z,5.53
2017-01-13T02:10:19.018Z,5.57
2017-01-13T02:10:45.122Z,5.51
2017-01-13T02:11:11.227Z,5.56
2017-01-13T02:11:37.311Z,5.64
2017-01-13T02:12:03.413Z,5.64
2017-01-13T02:12:29.504Z,5.62
2017-01-13T02:12:55.620Z,5.64
2017-01-13T02:13:21.716Z,5.68
2017-01-13T02:13:47.830Z,5.62
2017-01-13T02:14:13.942Z,5.68
2017-01-13T02:14:40.041Z,5.62
2017-01-13T02:15:06.133Z,5.65
2017-01-13T02:15:32.231Z,5.68
2017-01-13T02:15:58.340Z,5.71
2017-01-13T02:16:24.429Z,5.64
2017-01-13T02:16:50.530Z,5.68
2017-01-13T02:17:16.644Z,5.75
2017-01-13T02:17:42.731Z,5.68
2017-01-13T02:18:08.836Z,5.82
2017-01-13T02:18:34.928Z,5.75
2017-01-13T02:19:01.037Z,5.76
2017-01-13T02:19:27.137Z,5.76
2017-01-13T02:19:53.218Z,5.76
2017-01-13T02:20:19.321Z,5.84
2017-01-13T02:20:45.427Z,5.84
2017-01-13T02:21:11.519Z,5.83
2017-01-13T02:21:37.616Z,5.84
2017-01-13T02:22:03.724Z,5.75
2017-01-13T02:22:29.815Z,5.71
2017-01-13T02:22:55.901Z,5.69
2017-01-13T02:23:22.011Z,5.69
2017-01-13T02:23:48.105Z,5.71
2017-01-13T02:24:14.187Z,5.72
2017-01-13T02:24:40.296Z,5.64
2017-01-13T02:25:06.394Z,5.75
2017-01-13T02:25:32.485Z,5.73
2017-01-13T02:25:58.584Z,5.76
2017-01-13T02:26:24.687Z,5.75
2017-01-13T02:26:50.778Z,5.75
2017-01-13T02:27:16.879Z,5.79
2017-01-13T02:27:42.985Z,5.83
2017-01-13T02:28:09.074Z,5.75
2017-01-13T02:28:35.168Z,5.75
2017-01-13T02:29:01.263Z,5.76
2017-01-13T02:29:27.369Z,5.84
2017-01-13T02:29:53.476Z,5.83
2017-01-13T02:30:19.562Z,5.84
2017-01-13T02:30:45.661Z,5.84
2017-01-13T02:31:11.768Z,5.87
2017-01-13T02:31:37.859Z,5.84
2017-01-13T02:32:03.983Z,5.83
2017-01-13T02:32:30.081Z,5.87
2017-01-13T02:32:56.174Z,5.93
2017-01-13T02:33:22.261Z,5.86
2017-01-13T02:33:48.373Z,5.91
2017-01-13T02:34:14.475Z,5.84
2017-01-13T02:34:40.572Z,5.79
2017-01-13T02:35:06.666Z,5.8
2017-01-13T02:35:32.763Z,5.83
2017-01-13T02:35:58.872Z,5.71
2017-01-13T02:36:24.964Z,5.68
2017-01-13T02:36:51.056Z,5.75
2017-01-13T02:37:17.170Z,5.71
2017-01-13T02:37:43.266Z,5.72
2017-01-13T02:38:09.362Z,5.73
2017-01-13T02:38:35.464Z,5.68
2017-01-13T02:39:01.563Z,5.62
2017-01-13T02:39:27.647Z,5.69
2017-01-13T02:39:53.781Z,5.73
2017-01-13T02:40:19.872Z,5.66
2017-01-13T02:40:45.980Z,5.72
2017-01-13T02:41:12.075Z,5.72
2017-01-13T02:41:38.165Z,5.66
2017-01-13T02:42:04.272Z,5.61
2017-01-13T02:42:30.377Z,5.57
2017-01-13T02:42:56.468Z,5.61
2017-01-13T02:43:22.572Z,5.56
2017-01-13T02:43:48.674Z,5.51
2017-01-13T02:44:14.760Z,5.53
2017-01-13T02:44:40.862Z,5.64
2017-01-13T02:45:06.972Z,5.62
2017-01-13T02:45:33.059Z,5.62
2017-01-13T02:45:59.164Z,5.61
2017-01-13T02:46:25.251Z,5.69
2017-01-13T02:46:51.352Z,5.65
2017-01-13T02:47:17.454Z,5.66
2017-01-13T02:47:43.546Z,5.66
2017-01-13T02:48:09.649Z,5.61
2017-01-13T02:48:35.752Z,5.5
2017-01-13T02:49:01.845Z,5.56
2017-01-13T02:49:27.943Z,5.47
2017-01-13T02:49:54.048Z,5.46
2017-01-13T02:50:20.144Z,5.56
2017-01-13T02:50:46.239Z,5.59
2017-01-13T02:51:12.347Z,5.56
2017-01-13T02:51:38.442Z,5.62
2017-01-13T02:52:04.553Z,5.65
2017-01-13T02:52:30.642Z,5.69
2017-01-13T02:52:56.741Z,5.65
2017-01-13T02:53:22.844Z,5.68
2017-01-13T02:53:48.937Z,5.71
2017-01-13T02:54:15.027Z,5.66
2017-01-13T02:54:41.133Z,5.72
2017-01-13T02:55:07.237Z,5.71
2017-01-13T02:55:33.333Z,5.71
2017-01-13T02:55:59.440Z,5.69
2017-01-13T02:56:25.534Z,5.68
2017-01-13T02:56:51.641Z,5.64
2017-01-13T02:57:17.729Z,5.66
2017-01-13T02:57:43.817Z,5.68
2017-01-13T02:58:09.927Z,5.71
2017-01-13T02:58:36.027Z,5.71
2017-01-13T02:59:02.122Z,5.68
2017-01-13T02:59:28.222Z,5.66
2017-01-13T02:59:54.323Z,5.65
2017-01-13T03:00:20.413Z,5.66
2017-01-13T03:00:46.520Z,5.61
2017-01-13T03:01:12.647Z,5.59
2017-01-13T03:01:38.735Z,5.53
2017-01-13T03:02:04.839Z,5.56
2017-01-13T03:02:30.931Z,5.53
2017-01-13T03:02:57.039Z,5.54
2017-01-13T03:03:23.139Z,5.51
2017-01-13T03:03:49.229Z,5.57
2017-01-13T03:04:15.330Z,5.56
2017-01-13T03:04:41.431Z,5.54
2017-01-13T03:05:07.518Z,5.44
2017-01-13T03:05:33.619Z,5.51
2017-01-13T03:05:59.722Z,5.59
2017-01-13T03:06:25.816Z,5.61
2017-01-13T03:06:51.910Z,5.59
2017-01-13T03:07:18.015Z,5.53
2017-01-13T03:07:44.105Z,5.54
2017-01-13T03:08:10.195Z,5.56
2017-01-13T03:08:36.310Z,5.53
2017-01-13T03:09:02.408Z,5.47
2017-01-13T03:09:28.496Z,5.5
2017-01-13T03:09:54.603Z,5.47
2017-01-13T03:10:20.698Z,5.36
2017-01-13T03:10:46.790Z,5.36
2017-01-13T03:11:12.889Z,5.36
2017-01-13T03:11:38.996Z,5.39
2017-01-13T03:12:05.081Z,5.39
2017-01-13T03:12:31.178Z,5.35
2017-01-13T03:12:57.283Z,5.3
2017-01-13T03:13:23.376Z,5.26
2017-01-13T03:13:49.485Z,5.28
2017-01-13T03:14:15.567Z,5.21
2017-01-13T03:14:41.669Z,5.25
2017-01-13T03:15:07.775Z,5.26
2017-01-13T03:15:33.863Z,5.21
2017-01-13T03:15:59.969Z,5.1
2017-01-13T03:16:26.279Z,5.26
2017-01-13T03:16:52.365Z,5.23
2017-01-13T03:17:18.456Z,5.14
2017-01-13T03:17:44.567Z,5.07
2017-01-13T03:18:10.663Z,4.96
2017-01-13T03:18:36.752Z,5.02
2017-01-13T03:19:02.853Z,4.94
2017-01-13T03:19:28.953Z,4.96
2017-01-13T03:19:55.090Z,5
2017-01-13T03:20:21.174Z,4.99
2017-01-13T03:20:47.272Z,4.93
2017-01-13T03:21:13.373Z,4.93
2017-01-13T03:21:39.469Z,5
2017-01-13T03:22:05.556Z,4.93
2017-01-13T03:22:31.668Z,4.9
2017-01-13T03:22:57.759Z,4.8
2017-01-13T03:23:23.846Z,4.75
2017-01-13T03:23:49.951Z,4.86
2017-01-13T03:24:16.049Z,4.8
2017-01-13T03:24:42.151Z,4.78
2017-01-13T03:25:08.246Z,4.77
2017-01-13T03:25:34.333Z,4.86
2017-01-13T03:26:00.444Z,4.77
2017-01-13T03:26:26.542Z,4.82
2017-01-13T03:26:52.633Z,4.71
2017-01-13T03:27:18.737Z,4.7
2017-01-13T03:27:44.835Z,4.78
2017-01-13T03:28:10.924Z,4.67
2017-01-13T03:28:37.029Z,4.75
2017-01-13T03:29:03.130Z,4.58
2017-01-13T03:29:29.211Z,4.59
2017-01-13T03:29:55.315Z,4.62
2017-01-13T03:30:21.406Z,4.55
2017-01-13T03:30:47.517Z,4.52
2017-01-13T03:31:13.621Z,4.5
2017-01-13T03:31:39.704Z,4.42
2017-01-13T03:32:05.808Z,4.52
2017-01-13T03:32:31.915Z,4.48
2017-01-13T03:32:58.022Z,4.49
2017-01-13T03:33:24.120Z,4.41
2017-01-13T03:33:50.215Z,4.32
2017-01-13T03:34:16.317Z,4.42
2017-01-13T03:34:42.419Z,4.4
2017-01-13T03:35:08.506Z,4.23
2017-01-13T03:35:34.612Z,4.26
2017-01-13T03:36:00.700Z,4.34
2017-01-13T03:36:26.808Z,4.19
2017-01-13T03:36:52.900Z,4.32
2017-01-13T03:37:18.989Z,4.24
2017-01-13T03:37:45.096Z,4.41
2017-01-13T03:38:11.193Z,4.28
2017-01-13T03:38:37.285Z,4.22
2017-01-13T03:39:03.384Z,4.26
2017-01-13T03:39:29.475Z,4.34
2017-01-13T03:39:55.563Z,4.17
2017-01-13T03:40:21.665Z,4.2
2017-01-13T03:40:47.770Z,4.31
2017-01-13T03:41:13.856Z,4.31
2017-01-13T03:41:39.961Z,4.19
2017-01-13T03:42:06.047Z,4.3
2017-01-13T03:42:32.146Z,4.28
2017-01-13T03:42:58.261Z,4.23
2017-01-13T03:43:24.347Z,4.24
2017-01-13T03:43:50.445Z,4.19
2017-01-13T03:44:16.557Z,4.35
2017-01-13T03:44:42.647Z,4.12
2017-01-13T03:45:08.772Z,4.12
2017-01-13T03:45:34.875Z,4.14
2017-01-13T03:46:00.971Z,4.13
2017-01-13T03:46:27.053Z,4.17
2017-01-13T03:46:53.157Z,4.17
2017-01-13T03:47:19.256Z,4.28
2017-01-13T03:47:45.358Z,4.28
2017-01-13T03:48:11.449Z,4.28
2017-01-13T03:48:37.549Z,4.28
2017-01-13T03:49:03.653Z,4.28
2017-01-13T03:49:29.748Z,4.16
2017-01-13T03:49:55.838Z,4.16
2017-01-13T03:50:21.972Z,4.16
2017-01-13T03:50:48.064Z,4.12
2017-01-13T03:51:14.154Z,4.12
2017-01-13T03:51:40.263Z,4.02
2017-01-13T03:52:06.365Z,3.95
2017-01-13T03:52:32.455Z,3.94
2017-01-13T03:52:58.553Z,3.95
2017-01-13T03:53:24.659Z,3.87
2017-01-13T03:53:50.740Z,3.77
2017-01-13T03:54:16.840Z,3.76
2017-01-13T03:54:42.947Z,3.84
2017-01-13T03:55:09.038Z,3.86
2017-01-13T03:55:35.138Z,3.83
2017-01-13T03:56:01.264Z,3.86
2017-01-13T03:56:27.362Z,3.83
2017-01-13T03:56:53.449Z,3.74
2017-01-13T03:57:19.565Z,3.66
2017-01-13T03:57:45.713Z,3.77
2017-01-13T03:58:11.818Z,3.68
2017-01-13T03:58:37.909Z,3.83
2017-01-13T03:59:04.010Z,3.74
2017-01-13T03:59:30.113Z,3.69
2017-01-13T03:59:56.208Z,3.73
2017-01-13T04:00:22.299Z,3.78
2017-01-13T04:00:48.406Z,3.74
2017-01-13T04:01:14.503Z,3.77
2017-01-13T04:01:40.593Z,3.74
2017-01-13T04:02:06.696Z,3.78
2017-01-13T04:02:32.826Z,3.78
2017-01-13T04:02:58.911Z,3.78
2017-01-13T04:03:25.015Z,3.81
2017-01-13T04:03:51.105Z,3.74
2017-01-13T04:04:17.215Z,3.74
2017-01-13T04:04:43.312Z,3.76
2017-01-13T04:05:09.402Z,3.69
2017-01-13T04:05:35.506Z,3.7
2017-01-13T04:06:01.605Z,3.73
2017-01-13T04:06:27.696Z,3.6
2017-01-13T04:06:53.798Z,3.68
2017-01-13T04:07:19.899Z,3.65
2017-01-13T04:07:45.987Z,3.58
2017-01-13T04:08:12.086Z,3.62
2017-01-13T04:08:38.198Z,3.69
2017-01-13T04:09:04.284Z,3.7
2017-01-13T04:09:30.381Z,3.76
2017-01-13T04:09:56.474Z,3.76
2017-01-13T04:10:22.586Z,3.83
2017-01-13T04:10:48.719Z,3.81
2017-01-13T04:11:14.808Z,3.77
2017-01-13T04:11:40.903Z,3.77
2017-01-13T04:12:07.007Z,3.7
2017-01-13T04:12:33.099Z,3.62
2017-01-13T04:12:59.199Z,3.66
2017-01-13T04:13:25.301Z,3.81
2017-01-13T04:13:51.394Z,3.63
2017-01-13T04:14:17.479Z,3.69
2017-01-13T04:14:43.584Z,3.8
2017-01-13T04:15:09.684Z,3.73
2017-01-13T04:15:35.793Z,3.81
2017-01-13T04:16:01.878Z,3.81
2017-01-13T04:16:27.975Z,3.84
2017-01-13T04:16:54.076Z,3.8
2017-01-13T04:17:20.171Z,3.81
2017-01-13T04:17:46.262Z,3.73
2017-01-13T04:18:12.374Z,3.8
2017-01-13T04:18:38.469Z,3.77
2017-01-13T04:19:04.563Z,3.74
2017-01-13T04:19:30.670Z,3.69
2017-01-13T04:19:56.766Z,3.76
2017-01-13T04:20:22.871Z,3.77
2017-01-13T04:20:48.964Z,3.81
2017-01-13T04:21:15.050Z,3.73
2017-01-13T04:21:41.161Z,3.69
2017-01-13T04:22:07.262Z,3.76
2017-01-13T04:22:33.353Z,3.76
2017-01-13T04:22:59.458Z,3.78
2017-01-13T04:23:25.559Z,3.84
2017-01-13T04:23:51.645Z,3.76
2017-01-13T04:24:17.750Z,3.86
2017-01-13T04:24:43.853Z,3.8
2017-01-13T04:25:09.941Z,3.78
2017-01-13T04:25:36.042Z,3.8
2017-01-13T04:26:02.133Z,3.66
2017-01-13T04:26:28.239Z,3.8
2017-01-13T04:26:54.338Z,3.62
2017-01-13T04:27:20.425Z,3.73
2017-01-13T04:27:46.530Z,3.69
2017-01-13T04:28:12.629Z,3.65
2017-01-13T04:28:38.716Z,3.68
2017-01-13T04:29:04.822Z,3.63
2017-01-13T04:29:30.931Z,3.73
2017-01-13T04:29:57.022Z,3.74
2017-01-13T04:30:23.118Z,3.68
2017-01-13T04:30:49.229Z,3.73
2017-01-13T04:31:15.322Z,3.73
2017-01-13T04:31:41.439Z,3.77
2017-01-13T04:32:07.517Z,3.76
2017-01-13T04:32:33.611Z,3.7
2017-01-13T04:32:59.719Z,3.76
2017-01-13T04:33:25.809Z,3.7
2017-01-13T04:33:51.910Z,3.78
2017-01-13T04:34:18.009Z,3.77
2017-01-13T04:34:44.102Z,3.77
2017-01-13T04:35:10.187Z,3.74
2017-01-13T04:35:36.300Z,3.81
2017-01-13T04:36:02.390Z,3.73
2017-01-13T04:36:28.482Z,3.65
2017-01-13T04:36:54.588Z,3.68
2017-01-13T04:37:20.689Z,3.66
2017-01-13T04:37:46.772Z,3.69
2017-01-13T04:38:12.878Z,3.62
2017-01-13T04:38:38.980Z,3.73
2017-01-13T04:39:05.071Z,3.65
2017-01-13T04:39:31.168Z,3.66
2017-01-13T04:39:57.274Z,3.69
2017-01-13T04:40:23.357Z,3.62
2017-01-13T04:40:49.450Z,3.5
2017-01-13T04:41:15.554Z,3.6
2017-01-13T04:41:41.663Z,3.6
2017-01-13T04:42:07.746Z,3.56
2017-01-13T04:42:33.845Z,3.63
2017-01-13T04:42:59.947Z,3.62
2017-01-13T04:43:26.056Z,3.55
2017-01-13T04:43:52.143Z,3.51
2017-01-13T04:44:18.241Z,3.48
2017-01-13T04:44:44.340Z,3.55
2017-01-13T04:45:10.433Z,3.56
2017-01-13T04:45:36.523Z,3.58
2017-01-13T04:46:02.642Z,3.56
2017-01-13T04:46:28.738Z,3.63
2017-01-13T04:46:54.825Z,3.56
2017-01-13T04:47:20.936Z,3.53
2017-01-13T04:47:47.034Z,3.51
2017-01-13T04:48:13.133Z,3.5
2017-01-13T04:48:39.228Z,3.66
2017-01-13T04:49:05.311Z,3.48
2017-01-13T04:49:31.422Z,3.51
2017-01-13T04:49:57.516Z,3.51
2017-01-13T04:50:23.610Z,3.42
2017-01-13T04:50:49.714Z,3.5
2017-01-13T04:51:15.812Z,3.51
2017-01-13T04:51:41.900Z,3.55
2017-01-13T04:52:08.000Z,3.42
2017-01-13T04:52:34.103Z,3.55
2017-01-13T04:53:00.195Z,3.53
2017-01-13T04:53:26.296Z,3.41
2017-01-13T04:53:52.385Z,3.45
2017-01-13T04:54:18.491Z,3.5
2017-01-13T04:54:44.595Z,3.47
2017-01-13T04:55:10.680Z,3.56
2017-01-13T04:55:36.784Z,3.59
2017-01-13T04:56:02.883Z,3.48
2017-01-13T04:56:28.973Z,3.58
2017-01-13T04:56:55.072Z,3.55
2017-01-13T04:57:21.183Z,3.55
2017-01-13T04:57:47.291Z,3.56
2017-01-13T04:58:13.391Z,3.5
2017-01-13T04:58:39.495Z,3.66
2017-01-13T04:59:05.592Z,3.62
2017-01-13T04:59:31.677Z,3.68
2017-01-13T04:59:57.785Z,3.58
2017-01-13T05:00:23.888Z,3.68
2017-01-13T05:00:49.975Z,3.56
2017-01-13T05:01:16.079Z,3.62
2017-01-13T05:01:42.170Z,3.55
2017-01-13T05:02:08.265Z,3.5
2017-01-13T05:02:34.373Z,3.51
2017-01-13T05:03:00.478Z,3.45
2017-01-13T05:03:26.562Z,3.44
2017-01-13T05:03:52.665Z,3.51
2017-01-13T05:04:18.763Z,3.5
2017-01-13T05:04:44.852Z,3.56
2017-01-13T05:05:10.955Z,3.51
2017-01-13T05:05:37.043Z,3.58
2017-01-13T05:06:03.143Z,3.55
2017-01-13T05:06:29.249Z,3.5
2017-01-13T05:06:55.339Z,3.58
2017-01-13T05:07:21.439Z,3.58
2017-01-13T05:07:47.548Z,3.53
2017-01-13T05:08:13.633Z,3.5
2017-01-13T05:08:39.731Z,3.56
2017-01-13T05:09:05.836Z,3.63
2017-01-13T05:09:31.929Z,3.59
2017-01-13T05:09:58.024Z,3.58
2017-01-13T05:10:24.122Z,3.55
2017-01-13T05:10:50.223Z,3.44
2017-01-13T05:11:16.334Z,3.42
2017-01-13T05:11:42.422Z,3.48
2017-01-13T05:12:08.521Z,3.45
2017-01-13T05:12:34.624Z,3.45
2017-01-13T05:13:00.721Z,3.47
2017-01-13T05:13:26.808Z,3.51
2017-01-13T05:13:52.921Z,3.47
2017-01-13T05:14:19.017Z,3.32
2017-01-13T05:14:45.109Z,3.47
2017-01-13T05:15:11.215Z,3.48
2017-01-13T05:15:37.313Z,3.51
2017-01-13T05:16:03.414Z,3.51
2017-01-13T05:16:29.503Z,3.45
2017-01-13T05:16:55.591Z,3.42
2017-01-13T05:17:21.702Z,3.34
2017-01-13T05:17:47.802Z,3.47
2017-01-13T05:18:13.894Z,3.44
2017-01-13T05:18:39.998Z,3.5
2017-01-13T05:19:06.089Z,3.42
2017-01-13T05:19:32.182Z,3.53
2017-01-13T05:19:58.281Z,3.53
2017-01-13T05:20:24.383Z,3.45
2017-01-13T05:20:50.473Z,3.45
2017-01-13T05:21:16.570Z,3.41
2017-01-13T05:21:42.677Z,3.44
2017-01-13T05:22:08.769Z,3.42
2017-01-13T05:22:34.857Z,3.44
2017-01-13T05:23:00.968Z,3.34
2017-01-13T05:23:27.059Z,3.4
2017-01-13T05:23:53.153Z,3.29
2017-01-13T05:24:19.256Z,3.36
2017-01-13T05:24:45.357Z,3.37
2017-01-13T05:25:11.444Z,3.31
2017-01-13T05:25:37.554Z,3.31
2017-01-13T05:26:03.648Z,3.42
2017-01-13T05:26:29.738Z,3.42
2017-01-13T05:26:55.838Z,3.37
2017-01-13T05:27:21.923Z,3.29
2017-01-13T05:27:48.070Z,3.45
2017-01-13T05:28:14.168Z,3.4
2017-01-13T05:28:40.255Z,3.41
2017-01-13T05:29:06.362Z,3.32
2017-01-13T05:29:32.457Z,3.31
2017-01-13T05:29:58.550Z,3.42
2017-01-13T05:30:24.648Z,3.31
2017-01-13T05:30:50.756Z,3.22
2017-01-13T05:31:16.838Z,3.32
2017-01-13T05:31:42.939Z,3.32
2017-01-13T05:32:09.047Z,3.25
2017-01-13T05:32:35.130Z,3.32
2017-01-13T05:33:01.235Z,3.36
2017-01-13T05:33:27.317Z,3.25
2017-01-13T05:33:53.422Z,3.21
2017-01-13T05:34:19.528Z,3.32
2017-01-13T05:34:45.619Z,3.36
2017-01-13T05:35:11.718Z,3.44
2017-01-13T05:35:37.825Z,3.44
2017-01-13T05:36:03.912Z,3.45
2017-01-13T05:36:30.008Z,3.31
2017-01-13T05:36:56.111Z,3.4
2017-01-13T05:37:22.203Z,3.36
2017-01-13T05:37:48.292Z,3.32
2017-01-13T05:38:14.395Z,3.26
2017-01-13T05:38:40.498Z,3.34
2017-01-13T05:39:06.607Z,3.26
2017-01-13T05:39:32.692Z,3.4
2017-01-13T05:39:58.790Z,3.32
2017-01-13T05:40:24.890Z,3.23
2017-01-13T05:40:50.989Z,3.37
2017-01-13T05:41:17.076Z,3.34
2017-01-13T05:41:43.188Z,3.41
2017-01-13T05:42:09.288Z,3.41
2017-01-13T05:42:35.376Z,3.41
2017-01-13T05:43:01.479Z,3.44
2017-01-13T05:43:27.573Z,3.42
2017-01-13T05:43:53.693Z,3.45
2017-01-13T05:44:19.788Z,3.44
2017-01-13T05:44:45.880Z,3.4
2017-01-13T05:45:11.989Z,3.41
2017-01-13T05:45:38.088Z,3.4
2017-01-13T05:46:04.174Z,3.31
2017-01-13T05:46:30.279Z,3.36
2017-01-13T05:46:56.372Z,3.28
2017-01-13T05:47:22.467Z,3.22
2017-01-13T05:47:48.572Z,3.4
2017-01-13T05:48:14.679Z,3.36
2017-01-13T05:48:40.764Z,3.4